Time;durP1;ratioP1;P1;durP2;ratioP2;P2;SDS_P1;SDS_P2;PMS_P1;PMS_P2;Temp;Humidity;BMP_temperature;BMP_pressure;BME280_temperature;BME280_humidity;BME280_pressure;Samples;Min_cycle;Max_cycle;Signal;HPM_P1;HPM_P2
2022/01/16 00:00:40;;;;;;;8.45;4.00;;;;;;;;;;5072792;28;20048;-38
2022/01/16 00:05:53;;;;;;;10.02;3.97;;;;;;;;;;5073009;28;20045;-38
2022/01/16 00:08:18;;;;;;;9.73;4.65;;;;;;;;;;5072686;28;20028;-38
2022/01/16 00:10:44;;;;;;;7.43;4.00;;;;;;;;;;5072612;28;20035;-38
2022/01/16 00:13:10;;;;;;;8.68;4.50;;;;;;;;;;5071278;28;20055;-38
2022/01/16 00:15:35;;;;;;;6.72;3.67;;;;;;;;;;5072518;28;20044;-38
2022/01/16 00:20:29;;;;;;;7.30;3.63;;;;;;;;;;5072721;28;20036;-38
2022/01/16 00:22:55;;;;;;;12.07;5.25;;;;;;;;;;5072540;28;20785;-38
2022/01/16 00:25:20;;;;;;;7.22;4.20;;;;;;;;;;5072398;28;20082;-38
2022/01/16 00:27:47;;;;;;;7.32;3.50;;;;;;;;;;5072346;28;20024;-38
2022/01/16 00:30:13;;;;;;;7.50;3.75;;;;;;;;;;5072183;28;20055;-38
2022/01/16 00:32:38;;;;;;;9.50;4.60;;;;;;;;;;5072473;28;20025;-38
2022/01/16 00:35:04;;;;;;;8.18;3.72;;;;;;;;;;5072115;28;20032;-38
2022/01/16 00:37:30;;;;;;;5.60;3.83;;;;;;;;;;5071451;28;20016;-38
2022/01/16 00:39:55;;;;;;;7.93;4.32;;;;;;;;;;5071998;28;20025;-39
2022/01/16 00:42:21;;;;;;;9.23;4.57;;;;;;;;;;5072185;28;20055;-38
2022/01/16 00:44:46;;;;;;;8.80;4.85;;;;;;;;;;5071981;28;20029;-38
2022/01/16 00:47:12;;;;;;;9.95;4.05;;;;;;;;;;5071916;28;20078;-38
2022/01/16 00:49:39;;;;;;;6.55;3.85;;;;;;;;;;5071905;28;20034;-38
2022/01/16 00:52:08;;;;;;;6.13;3.85;;;;;;;;;;5071829;28;20452;-38
2022/01/16 00:54:34;;;;;;;8.02;4.30;;;;;;;;;;5087320;28;20036;-38
2022/01/16 00:56:59;;;;;;;6.38;3.30;;;;;;;;;;5071789;28;20070;-38
2022/01/16 00:59:25;;;;;;;10.35;5.57;;;;;;;;;;5071936;28;20044;-38
2022/01/16 01:01:50;;;;;;;10.07;3.40;;;;;;;;;;5071694;28;20463;-39
2022/01/16 01:04:16;;;;;;;4.53;3.40;;;;;;;;;;5071615;28;20028;-38
2022/01/16 01:06:41;;;;;;;8.57;4.82;;;;;;;;;;5071613;28;20028;-38
2022/01/16 01:09:07;;;;;;;6.03;4.00;;;;;;;;;;5071589;28;20040;-39
2022/01/16 01:11:32;;;;;;;8.07;4.00;;;;;;;;;;5071624;28;20038;-39
2022/01/16 01:16:38;;;;;;;6.32;4.57;;;;;;;;;;5071736;28;20078;-38
2022/01/16 01:19:03;;;;;;;17.10;5.45;;;;;;;;;;5071539;28;20491;-38
2022/01/16 01:21:29;;;;;;;11.13;4.00;;;;;;;;;;5071374;28;20031;-38
2022/01/16 01:23:58;;;;;;;7.28;3.80;;;;;;;;;;5071468;28;20490;-38
2022/01/16 01:26:33;;;;;;;8.80;3.53;;;;;;;;;;5071257;28;20028;-38
2022/01/16 01:28:58;;;;;;;9.57;4.63;;;;;;;;;;5071660;28;20035;-38
2022/01/16 01:31:25;;;;;;;6.25;3.28;;;;;;;;;;5071271;28;20111;-38
2022/01/16 01:33:51;;;;;;;10.02;5.47;;;;;;;;;;5071583;28;20360;-38
2022/01/16 01:36:16;;;;;;;12.40;4.80;;;;;;;;;;5071119;28;20036;-38
2022/01/16 01:38:42;;;;;;;6.50;3.85;;;;;;;;;;5071326;28;20066;-38
2022/01/16 01:41:07;;;;;;;6.20;3.25;;;;;;;;;;5071230;28;20068;-38
2022/01/16 01:51:32;;;;;;;8.05;3.55;;;;;;;;;;5075161;28;20391;-38
2022/01/16 01:53:58;;;;;;;7.22;3.72;;;;;;;;;;5075488;28;20024;-39
2022/01/16 01:56:24;;;;;;;7.38;3.83;;;;;;;;;;5075150;28;20082;-41
2022/01/16 01:58:50;;;;;;;11.52;4.50;;;;;;;;;;5090910;28;20020;-39
2022/01/16 02:01:16;;;;;;;7.30;4.15;;;;;;;;;;5075119;28;20432;-38
2022/01/16 02:06:07;;;;;;;7.60;3.33;;;;;;;;;;5075321;28;20039;-38
2022/01/16 02:08:37;;;;;;;8.80;4.47;;;;;;;;;;5075277;28;20110;-38
2022/01/16 02:11:03;;;;;;;10.70;5.32;;;;;;;;;;5075151;28;20032;-38
2022/01/16 02:13:32;;;;;;;7.28;4.55;;;;;;;;;;5074818;28;20016;-38
2022/01/16 02:32:00;;;;;;;9.38;5.22;;;;;;;;;;5074561;28;20421;-38
2022/01/16 02:34:35;;;;;;;5.70;3.88;;;;;;;;;;5074617;28;20121;-38
2022/01/16 02:37:05;;;;;;;8.60;4.43;;;;;;;;;;5074402;28;20025;-38
2022/01/16 02:39:34;;;;;;;8.73;4.05;;;;;;;;;;5074255;28;20539;-38
2022/01/16 02:42:00;;;;;;;7.68;3.58;;;;;;;;;;5074311;28;20051;-38
2022/01/16 02:46:51;;;;;;;9.25;4.95;;;;;;;;;;5074427;28;20032;-38
2022/01/16 02:49:24;;;;;;;8.13;3.80;;;;;;;;;;5074213;28;20044;-38
2022/01/16 02:51:51;;;;;;;8.00;3.85;;;;;;;;;;5074489;28;20025;-38
2022/01/16 02:54:17;;;;;;;5.90;3.13;;;;;;;;;;5074283;28;20082;-40
2022/01/16 02:56:45;;;;;;;7.63;3.63;;;;;;;;;;5073992;28;20429;-38
2022/01/16 02:59:11;;;;;;;6.32;3.92;;;;;;;;;;5074137;28;20024;-39
2022/01/16 03:01:36;;;;;;;7.93;4.18;;;;;;;;;;5073085;28;20112;-38
2022/01/16 03:04:02;;;;;;;6.70;3.47;;;;;;;;;;5073968;28;20115;-38
2022/01/16 03:06:28;;;;;;;9.95;5.00;;;;;;;;;;5073828;28;20071;-38
2022/01/16 03:08:54;;;;;;;7.45;3.70;;;;;;;;;;5074106;28;20044;-38
2022/01/16 03:11:35;;;;;;;10.77;4.30;;;;;;;;;;5074066;28;20094;-38
2022/01/16 03:14:02;;;;;;;10.05;4.35;;;;;;;;;;5073713;28;20378;-38
2022/01/16 03:16:27;;;;;;;7.95;3.97;;;;;;;;;;5073940;28;20051;-38
2022/01/16 03:24:32;;;;;;;8.90;3.97;;;;;;;;;;5064329;28;20076;-38
2022/01/16 03:26:59;;;;;;;7.70;4.35;;;;;;;;;;5073709;28;20086;-38
2022/01/16 03:29:26;;;;;;;8.00;4.53;;;;;;;;;;5073269;28;20115;-38
2022/01/16 03:31:51;;;;;;;8.18;3.85;;;;;;;;;;5073524;28;20374;-37
2022/01/16 03:34:17;;;;;;;7.45;3.80;;;;;;;;;;5073583;28;20037;-37
2022/01/16 03:36:43;;;;;;;4.93;3.30;;;;;;;;;;5073591;28;20016;-38
2022/01/16 03:39:08;;;;;;;6.28;3.88;;;;;;;;;;5073462;28;20029;-38
2022/01/16 03:41:34;;;;;;;8.02;3.88;;;;;;;;;;5073016;28;20159;-42
2022/01/16 03:44:03;;;;;;;8.68;3.92;;;;;;;;;;5073271;28;20040;-38
2022/01/16 03:46:34;;;;;;;8.52;3.75;;;;;;;;;;5073043;28;20463;-38
2022/01/16 03:49:04;;;;;;;13.80;3.97;;;;;;;;;;5073204;28;20483;-38
2022/01/16 03:51:30;;;;;;;10.15;5.38;;;;;;;;;;5072913;28;20031;-38
2022/01/16 03:53:55;;;;;;;15.85;4.40;;;;;;;;;;5073031;28;20127;-38
2022/01/16 03:56:21;;;;;;;6.35;3.83;;;;;;;;;;5072894;28;20076;-38
2022/01/16 03:58:46;;;;;;;6.70;3.53;;;;;;;;;;5072869;28;20052;-38
2022/01/16 04:01:12;;;;;;;7.10;4.07;;;;;;;;;;5072925;28;20466;-38
2022/01/16 04:03:37;;;;;;;8.13;3.60;;;;;;;;;;5073071;28;20039;-40
2022/01/16 04:06:03;;;;;;;7.80;4.70;;;;;;;;;;5072737;28;20087;-38
2022/01/16 04:08:28;;;;;;;9.57;4.82;;;;;;;;;;5072767;28;20032;-38
2022/01/16 04:10:54;;;;;;;8.23;4.45;;;;;;;;;;5072906;28;20375;-38
2022/01/16 04:13:21;;;;;;;6.75;3.03;;;;;;;;;;5088181;28;20111;-38
2022/01/16 04:15:46;;;;;;;8.70;4.53;;;;;;;;;;5072570;28;20024;-38
2022/01/16 04:18:12;;;;;;;7.78;3.00;;;;;;;;;;5072456;28;20020;-38
2022/01/16 04:20:37;;;;;;;12.55;5.05;;;;;;;;;;5072723;28;20383;-38
2022/01/16 04:23:03;;;;;;;7.20;3.58;;;;;;;;;;5072497;28;20099;-38
2022/01/16 04:25:29;;;;;;;6.47;3.40;;;;;;;;;;5072521;28;20025;-39
2022/01/16 04:27:54;;;;;;;7.55;4.55;;;;;;;;;;5072475;28;20039;-38
2022/01/16 04:30:20;;;;;;;9.90;4.13;;;;;;;;;;5072158;28;20020;-38
2022/01/16 04:32:45;;;;;;;9.98;4.72;;;;;;;;;;5072187;28;20028;-38
2022/01/16 04:35:11;;;;;;;10.20;4.85;;;;;;;;;;5072115;28;20056;-38
2022/01/16 04:37:36;;;;;;;5.22;3.35;;;;;;;;;;5072115;28;20033;-38
2022/01/16 04:40:03;;;;;;;9.85;4.43;;;;;;;;;;5072230;28;20028;-38
2022/01/16 04:45:13;;;;;;;9.32;3.90;;;;;;;;;;5087755;28;20032;-38
2022/01/16 04:47:39;;;;;;;8.93;4.07;;;;;;;;;;5072132;28;20360;-38
2022/01/16 04:50:05;;;;;;;8.23;3.60;;;;;;;;;;5072008;28;20052;-38
2022/01/16 04:52:30;;;;;;;7.40;3.90;;;;;;;;;;5071811;28;20541;-38
2022/01/16 04:54:55;;;;;;;10.55;4.15;;;;;;;;;;5071775;28;20041;-38
2022/01/16 04:57:21;;;;;;;12.73;5.07;;;;;;;;;;5072037;28;20078;-38
2022/01/16 04:59:46;;;;;;;7.28;3.92;;;;;;;;;;5072093;28;20386;-38
2022/01/16 05:02:12;;;;;;;9.32;4.65;;;;;;;;;;5071741;28;20474;-38
2022/01/16 05:04:38;;;;;;;6.20;3.50;;;;;;;;;;5087526;28;20044;-38
2022/01/16 05:07:04;;;;;;;7.45;4.10;;;;;;;;;;5071742;28;20463;-38
2022/01/16 05:09:29;;;;;;;7.30;4.03;;;;;;;;;;5071759;28;20043;-38
2022/01/16 05:11:57;;;;;;;5.95;3.80;;;;;;;;;;5071621;28;20031;-38
2022/01/16 05:17:06;;;;;;;6.70;3.78;;;;;;;;;;5071536;28;20078;-38
2022/01/16 05:19:32;;;;;;;7.95;4.55;;;;;;;;;;5087227;28;20025;-38
2022/01/16 05:21:57;;;;;;;6.60;4.25;;;;;;;;;;5071420;28;20051;-38
2022/01/16 05:24:28;;;;;;;7.45;4.07;;;;;;;;;;5069655;28;20024;-38
2022/01/16 05:26:53;;;;;;;9.75;4.88;;;;;;;;;;5071440;28;20514;-38
2022/01/16 05:29:18;;;;;;;6.80;3.53;;;;;;;;;;5071347;28;20024;-38
2022/01/16 05:31:47;;;;;;;5.75;3.47;;;;;;;;;;5071654;28;20032;-38
2022/01/16 05:34:19;;;;;;;7.75;3.70;;;;;;;;;;5071341;28;20069;-38
2022/01/16 05:36:45;;;;;;;5.43;3.47;;;;;;;;;;5071222;28;20085;-38
2022/01/16 05:39:11;;;;;;;7.72;3.80;;;;;;;;;;5071600;28;20380;-38
2022/01/16 05:41:37;;;;;;;9.20;4.43;;;;;;;;;;5071005;28;20041;-38
2022/01/16 05:44:03;;;;;;;8.45;4.10;;;;;;;;;;5071292;28;20036;-38
2022/01/16 05:46:28;;;;;;;6.80;3.65;;;;;;;;;;5071370;28;20040;-39
2022/01/16 05:48:54;;;;;;;13.02;4.70;;;;;;;;;;5071313;28;20024;-38
2022/01/16 05:51:19;;;;;;;8.10;4.18;;;;;;;;;;5071293;28;20028;-38
2022/01/16 05:53:45;;;;;;;8.55;4.07;;;;;;;;;;5071077;28;20519;-38
2022/01/16 05:56:12;;;;;;;8.63;4.00;;;;;;;;;;5071262;28;20129;-38
2022/01/16 05:58:37;;;;;;;8.63;3.72;;;;;;;;;;5070889;28;20622;-38
2022/01/16 06:01:03;;;;;;;9.43;3.95;;;;;;;;;;5071122;28;20036;-38
2022/01/16 06:03:28;;;;;;;6.50;4.47;;;;;;;;;;5071056;28;20066;-38
2022/01/16 06:05:54;;;;;;;9.20;4.63;;;;;;;;;;5071164;28;20066;-40
2022/01/16 06:08:19;;;;;;;6.78;3.67;;;;;;;;;;5071216;28;20032;-38
2022/01/16 06:10:45;;;;;;;7.10;4.18;;;;;;;;;;5071276;28;20475;-38
2022/01/16 06:13:10;;;;;;;5.25;3.58;;;;;;;;;;5071182;28;20478;-38
2022/01/16 06:15:36;;;;;;;9.93;3.78;;;;;;;;;;5070859;28;20051;-38
2022/01/16 06:18:01;;;;;;;7.90;4.25;;;;;;;;;;5070929;28;20032;-38
2022/01/16 06:20:27;;;;;;;6.85;3.88;;;;;;;;;;5070765;28;20036;-38
2022/01/16 06:22:55;;;;;;;6.75;4.15;;;;;;;;;;5070894;28;20024;-38
2022/01/16 06:25:22;;;;;;;9.40;4.22;;;;;;;;;;5070636;28;20483;-38
2022/01/16 06:27:47;;;;;;;7.05;4.25;;;;;;;;;;5070809;28;20021;-38
2022/01/16 06:30:13;;;;;;;6.00;4.03;;;;;;;;;;5070804;28;20494;-38
2022/01/16 06:32:38;;;;;;;8.30;4.00;;;;;;;;;;5070997;28;20110;-38
2022/01/16 06:35:05;;;;;;;8.65;4.55;;;;;;;;;;5070864;28;20111;-38
2022/01/16 06:37:30;;;;;;;4.65;3.78;;;;;;;;;;5074160;28;20034;-38
2022/01/16 06:39:55;;;;;;;8.20;3.65;;;;;;;;;;5074323;28;20107;-39
2022/01/16 06:42:21;;;;;;;8.75;4.22;;;;;;;;;;5074288;28;20040;-38
2022/01/16 06:44:46;;;;;;;5.93;3.72;;;;;;;;;;5074275;28;20028;-38
2022/01/16 06:47:12;;;;;;;11.68;5.40;;;;;;;;;;5074374;28;20039;-38
2022/01/16 06:49:38;;;;;;;6.50;4.50;;;;;;;;;;5074086;28;20032;-38
2022/01/16 06:52:04;;;;;;;9.13;4.30;;;;;;;;;;5074564;28;20016;-38
2022/01/16 06:54:29;;;;;;;6.50;4.97;;;;;;;;;;5073969;28;20036;-38
2022/01/16 06:56:55;;;;;;;9.98;4.70;;;;;;;;;;5074092;28;20036;-38
2022/01/16 06:59:20;;;;;;;7.30;4.55;;;;;;;;;;5072799;28;20028;-38
2022/01/16 07:01:46;;;;;;;10.00;5.75;;;;;;;;;;5074010;28;20082;-38
2022/01/16 07:04:12;;;;;;;8.77;4.93;;;;;;;;;;5073898;28;20024;-38
2022/01/16 07:06:37;;;;;;;8.90;3.90;;;;;;;;;;5073950;28;20043;-38
2022/01/16 07:09:03;;;;;;;7.95;3.90;;;;;;;;;;5073758;28;20028;-38
2022/01/16 07:11:29;;;;;;;7.85;4.70;;;;;;;;;;5073871;28;20024;-38
2022/01/16 07:13:54;;;;;;;4.90;3.22;;;;;;;;;;5073798;28;20025;-38
2022/01/16 07:16:21;;;;;;;6.43;3.17;;;;;;;;;;5073842;28;20032;-38
2022/01/16 07:18:47;;;;;;;9.07;4.22;;;;;;;;;;5073738;28;20109;-38
2022/01/16 07:21:13;;;;;;;9.05;4.05;;;;;;;;;;5073926;28;20500;-38
2022/01/16 07:23:43;;;;;;;7.80;3.50;;;;;;;;;;5073618;28;20113;-38
2022/01/16 07:26:09;;;;;;;10.48;4.07;;;;;;;;;;5073649;28;20025;-38
2022/01/16 07:28:35;;;;;;;9.25;4.20;;;;;;;;;;5073737;28;20029;-38
2022/01/16 07:31:00;;;;;;;6.10;4.10;;;;;;;;;;5073483;28;20467;-38
2022/01/16 07:33:26;;;;;;;9.88;5.10;;;;;;;;;;5089243;28;20040;-41
2022/01/16 07:35:51;;;;;;;8.98;4.78;;;;;;;;;;5073348;28;20028;-38
2022/01/16 07:38:17;;;;;;;6.65;3.60;;;;;;;;;;5073397;28;20060;-38
2022/01/16 07:40:42;;;;;;;5.63;3.25;;;;;;;;;;5073378;28;20139;-38
2022/01/16 07:43:08;;;;;;;6.50;3.22;;;;;;;;;;5073366;28;20063;-38
2022/01/16 07:45:34;;;;;;;5.22;3.08;;;;;;;;;;5088654;28;20031;-38
2022/01/16 07:48:00;;;;;;;5.55;3.55;;;;;;;;;;5072914;28;20035;-37
2022/01/16 07:50:26;;;;;;;8.13;4.30;;;;;;;;;;5073038;28;20490;-37
2022/01/16 07:52:52;;;;;;;8.02;4.05;;;;;;;;;;5073057;28;20028;-38
2022/01/16 07:55:21;;;;;;;7.90;3.72;;;;;;;;;;5072964;28;20055;-38
2022/01/16 07:57:49;;;;;;;6.43;3.30;;;;;;;;;;5072943;28;20460;-37
2022/01/16 08:00:14;;;;;;;9.95;4.18;;;;;;;;;;5072835;28;20112;-38
2022/01/16 08:02:41;;;;;;;7.07;4.38;;;;;;;;;;5073123;28;20120;-38
2022/01/16 08:05:06;;;;;;;8.90;3.85;;;;;;;;;;5072828;28;20059;-38
2022/01/16 08:07:32;;;;;;;12.55;4.70;;;;;;;;;;5072683;28;20040;-38
2022/01/16 08:09:58;;;;;;;10.52;4.28;;;;;;;;;;5073013;28;20490;-38
2022/01/16 08:12:23;;;;;;;4.20;2.90;;;;;;;;;;5072890;28;20028;-38
2022/01/16 08:14:49;;;;;;;10.90;4.10;;;;;;;;;;5072440;28;20033;-37
2022/01/16 08:17:15;;;;;;;11.65;4.45;;;;;;;;;;5072933;28;20036;-38
2022/01/16 08:19:40;;;;;;;7.03;3.45;;;;;;;;;;5072514;28;20471;-38
2022/01/16 08:22:06;;;;;;;12.48;4.93;;;;;;;;;;5072462;28;20068;-38
2022/01/16 08:24:31;;;;;;;9.65;4.53;;;;;;;;;;5072327;28;20024;-38
2022/01/16 08:26:57;;;;;;;6.25;3.50;;;;;;;;;;5072508;28;20035;-38
2022/01/16 08:29:22;;;;;;;4.93;3.60;;;;;;;;;;5072148;28;20485;-38
2022/01/16 08:31:48;;;;;;;8.27;3.83;;;;;;;;;;5072368;28;20041;-38
2022/01/16 08:34:13;;;;;;;8.02;4.00;;;;;;;;;;5072096;28;20528;-38
2022/01/16 08:36:39;;;;;;;6.32;3.28;;;;;;;;;;5072085;28;20028;-38
2022/01/16 08:39:04;;;;;;;8.48;3.90;;;;;;;;;;5072326;28;20021;-38
2022/01/16 08:41:32;;;;;;;6.32;3.10;;;;;;;;;;5071789;28;20045;-38
2022/01/16 08:44:00;;;;;;;6.90;3.20;;;;;;;;;;5072196;28;20025;-38
2022/01/16 08:46:26;;;;;;;8.85;4.45;;;;;;;;;;5072228;28;20364;-38
2022/01/16 08:48:51;;;;;;;9.23;3.83;;;;;;;;;;5071984;28;20451;-38
2022/01/16 08:51:17;;;;;;;6.40;3.45;;;;;;;;;;5072047;28;20100;-38
2022/01/16 08:53:44;;;;;;;6.35;3.92;;;;;;;;;;5070555;28;20025;-38
2022/01/16 08:56:10;;;;;;;6.82;3.17;;;;;;;;;;5072018;28;20398;-37
2022/01/16 08:58:35;;;;;;;7.32;3.72;;;;;;;;;;5071120;28;20021;-38
2022/01/16 09:01:01;;;;;;;6.68;3.33;;;;;;;;;;5071806;28;20071;-38
2022/01/16 09:03:26;;;;;;;4.28;2.85;;;;;;;;;;5072026;28;20012;-38
2022/01/16 09:05:52;;;;;;;4.85;3.03;;;;;;;;;;5071942;28;20098;-39
2022/01/16 09:08:18;;;;;;;7.20;3.78;;;;;;;;;;5071698;28;20040;-38
2022/01/16 09:10:47;;;;;;;10.10;3.50;;;;;;;;;;5071536;28;20035;-38
2022/01/16 09:13:15;;;;;;;8.75;3.40;;;;;;;;;;5071953;28;20024;-38
2022/01/16 09:15:42;;;;;;;6.13;4.05;;;;;;;;;;5071652;28;20049;-38
2022/01/16 09:18:08;;;;;;;6.20;2.90;;;;;;;;;;5071533;28;20025;-37
2022/01/16 09:20:34;;;;;;;6.47;2.55;;;;;;;;;;5071522;28;20066;-38
2022/01/16 09:23:00;;;;;;;6.68;3.70;;;;;;;;;;5071527;28;20643;-37
2022/01/16 09:25:26;;;;;;;7.70;2.90;;;;;;;;;;5071227;28;20031;-38
2022/01/16 09:27:52;;;;;;;6.70;4.30;;;;;;;;;;5071453;28;20477;-37
2022/01/16 09:30:18;;;;;;;4.53;2.75;;;;;;;;;;5070285;28;20124;-37
2022/01/16 09:32:44;;;;;;;7.55;3.55;;;;;;;;;;5071448;28;20119;-37
2022/01/16 09:35:10;;;;;;;12.48;3.97;;;;;;;;;;5071194;28;20079;-38
2022/01/16 09:37:36;;;;;;;8.68;3.55;;;;;;;;;;5071218;28;20115;-37
2022/01/16 09:40:03;;;;;;;6.10;3.08;;;;;;;;;;5071061;28;20111;-38
2022/01/16 09:42:29;;;;;;;3.67;2.85;;;;;;;;;;5071063;28;20139;-38
2022/01/16 09:44:56;;;;;;;7.82;3.78;;;;;;;;;;5071210;28;20028;-37
2022/01/16 09:47:22;;;;;;;4.07;3.03;;;;;;;;;;5071114;28;20028;-38
2022/01/16 09:49:47;;;;;;;8.60;3.15;;;;;;;;;;5071189;28;20043;-38
2022/01/16 09:52:14;;;;;;;5.60;3.47;;;;;;;;;;5071210;28;20032;-38
2022/01/16 09:54:39;;;;;;;6.25;4.03;;;;;;;;;;5070877;28;20111;-38
2022/01/16 09:57:10;;;;;;;10.55;3.92;;;;;;;;;;5071185;28;20029;-38
2022/01/16 09:59:35;;;;;;;7.55;3.22;;;;;;;;;;5070961;28;20024;-38
2022/01/16 10:02:01;;;;;;;6.60;3.47;;;;;;;;;;5071042;28;20028;-38
2022/01/16 10:04:35;;;;;;;7.18;3.08;;;;;;;;;;5071270;28;20089;-38
2022/01/16 10:07:03;;;;;;;5.82;3.15;;;;;;;;;;5070899;28;20330;-38
2022/01/16 10:09:29;;;;;;;7.80;3.13;;;;;;;;;;5071452;28;20012;-38
2022/01/16 10:12:01;;;;;;;7.30;3.15;;;;;;;;;;5075068;28;20048;-38
2022/01/16 10:14:31;;;;;;;8.57;3.33;;;;;;;;;;5074747;28;20025;-38
2022/01/16 10:16:56;;;;;;;5.28;3.78;;;;;;;;;;5073603;28;20032;-38
2022/01/16 10:19:27;;;;;;;5.80;3.08;;;;;;;;;;5090542;28;20394;-38
2022/01/16 10:21:54;;;;;;;7.30;3.53;;;;;;;;;;5074835;28;20033;-38
2022/01/16 10:24:27;;;;;;;10.43;3.15;;;;;;;;;;5074758;28;20094;-40
2022/01/16 10:27:08;;;;;;;6.35;3.42;;;;;;;;;;5074819;28;20542;-38
2022/01/16 10:29:40;;;;;;;8.20;3.25;;;;;;;;;;5074498;28;20032;-38
2022/01/16 10:32:17;;;;;;;4.97;2.83;;;;;;;;;;5074725;28;20135;-37
2022/01/16 10:34:45;;;;;;;7.38;3.17;;;;;;;;;;5074421;28;20032;-38
2022/01/16 10:37:27;;;;;;;8.57;3.35;;;;;;;;;;5074557;28;20020;-41
2022/01/16 10:39:56;;;;;;;4.72;3.05;;;;;;;;;;5074561;28;20108;-38
2022/01/16 10:42:21;;;;;;;5.68;3.15;;;;;;;;;;5074307;28;20060;-39
2022/01/16 10:44:54;;;;;;;7.18;3.35;;;;;;;;;;5074385;28;20059;-38
2022/01/16 10:47:23;;;;;;;6.82;3.60;;;;;;;;;;5074667;28;20093;-38
2022/01/16 10:50:01;;;;;;;6.55;3.00;;;;;;;;;;5074487;28;20072;-38
2022/01/16 10:52:26;;;;;;;4.95;2.97;;;;;;;;;;5074194;28;20043;-38
2022/01/16 10:54:52;;;;;;;9.57;3.22;;;;;;;;;;5074086;28;20040;-38
2022/01/16 10:57:22;;;;;;;5.10;2.72;;;;;;;;;;5074161;28;20383;-43
2022/01/16 10:59:48;;;;;;;5.80;3.15;;;;;;;;;;5074044;28;20036;-38
2022/01/16 11:02:13;;;;;;;5.50;3.42;;;;;;;;;;5074146;28;20031;-38
2022/01/16 11:04:43;;;;;;;5.20;3.30;;;;;;;;;;5073904;28;20025;-38
2022/01/16 11:07:10;;;;;;;4.60;2.55;;;;;;;;;;5074223;28;20474;-38
2022/01/16 11:09:36;;;;;;;5.57;2.63;;;;;;;;;;5073868;28;20055;-38
2022/01/16 11:12:01;;;;;;;3.75;2.33;;;;;;;;;;5073790;28;20064;-38
2022/01/16 11:14:29;;;;;;;4.72;2.35;;;;;;;;;;5073825;28;20024;-38
2022/01/16 11:16:56;;;;;;;4.22;1.85;;;;;;;;;;5074060;28;20063;-38
2022/01/16 11:19:24;;;;;;;2.60;1.77;;;;;;;;;;5073668;28;20066;-38
2022/01/16 11:21:56;;;;;;;4.57;2.70;;;;;;;;;;5088616;28;20040;-38
2022/01/16 11:26:50;;;;;;;3.67;1.95;;;;;;;;;;5073700;28;20600;-38
2022/01/16 11:29:16;;;;;;;3.78;2.10;;;;;;;;;;5073796;28;20037;-38
2022/01/16 11:31:43;;;;;;;2.60;1.75;;;;;;;;;;5072219;28;20033;-38
2022/01/16 11:34:10;;;;;;;6.28;2.50;;;;;;;;;;5073392;28;20028;-38
2022/01/16 11:36:35;;;;;;;4.60;2.30;;;;;;;;;;5073346;28;20032;-38
2022/01/16 11:39:05;;;;;;;3.10;1.80;;;;;;;;;;5073735;28;20040;-38
2022/01/16 11:41:33;;;;;;;2.22;2.03;;;;;;;;;;5072797;28;20085;-38
2022/01/16 11:44:21;;;;;;;4.88;2.00;;;;;;;;;;5073280;28;20620;-38
2022/01/16 11:46:55;;;;;;;4.45;1.67;;;;;;;;;;5073237;28;20115;-38
2022/01/16 11:49:37;;;;;;;4.53;2.65;;;;;;;;;;5073265;28;20036;-38
2022/01/16 11:52:07;;;;;;;4.53;2.73;;;;;;;;;;5073201;28;20074;-37
2022/01/16 11:54:37;;;;;;;3.13;1.88;;;;;;;;;;5072892;28;20063;-38
2022/01/16 11:57:17;;;;;;;3.80;1.58;;;;;;;;;;5073037;28;20064;-38
2022/01/16 11:59:42;;;;;;;4.43;2.25;;;;;;;;;;5072862;28;20098;-38
2022/01/16 12:02:08;;;;;;;3.75;2.13;;;;;;;;;;5072923;28;20024;-38
2022/01/16 12:04:33;;;;;;;4.95;2.47;;;;;;;;;;5072822;28;20099;-38
2022/01/16 12:06:59;;;;;;;10.93;2.55;;;;;;;;;;5072726;28;20065;-38
2022/01/16 12:09:34;;;;;;;3.88;1.58;;;;;;;;;;5072681;28;20029;-38
2022/01/16 12:12:00;;;;;;;2.08;1.73;;;;;;;;;;5072706;28;20020;-38
2022/01/16 12:14:44;;;;;;;4.15;1.77;;;;;;;;;;5072538;28;20031;-39
2022/01/16 12:17:25;;;;;;;3.78;1.95;;;;;;;;;;5072606;28;20044;-38
2022/01/16 12:19:51;;;;;;;3.90;2.10;;;;;;;;;;5072915;28;20114;-38
2022/01/16 12:22:18;;;;;;;5.15;2.63;;;;;;;;;;5072756;28;20028;-38
2022/01/16 12:24:45;;;;;;;1.83;1.45;;;;;;;;;;5072714;28;20056;-38
2022/01/16 12:27:20;;;;;;;5.45;2.97;;;;;;;;;;5072445;28;20462;-38
2022/01/16 12:30:04;;;;;;;3.65;2.63;;;;;;;;;;5072825;28;20047;-38
2022/01/16 12:32:48;;;;;;;3.33;1.98;;;;;;;;;;5072025;28;20095;-38
2022/01/16 12:35:14;;;;;;;3.67;2.17;;;;;;;;;;5071800;28;20064;-38
2022/01/16 12:37:41;;;;;;;6.50;2.35;;;;;;;;;;5072401;28;20457;-38
2022/01/16 12:40:07;;;;;;;3.75;1.90;;;;;;;;;;5072328;28;20438;-38
2022/01/16 12:42:32;;;;;;;2.67;1.85;;;;;;;;;;5071918;28;20087;-38
2022/01/16 12:45:00;;;;;;;4.85;2.28;;;;;;;;;;5072069;28;20466;-39
2022/01/16 12:47:26;;;;;;;2.63;1.65;;;;;;;;;;5070710;28;20104;-38
2022/01/16 12:49:52;;;;;;;5.88;2.88;;;;;;;;;;5072044;28;20035;-38
2022/01/16 12:52:18;;;;;;;3.72;1.58;;;;;;;;;;5072195;28;20068;-38
2022/01/16 12:54:50;;;;;;;6.13;2.78;;;;;;;;;;5071964;28;20087;-38
2022/01/16 12:57:24;;;;;;;2.97;2.13;;;;;;;;;;5071896;28;20116;-38
2022/01/16 12:59:50;;;;;;;4.55;2.10;;;;;;;;;;5071998;28;20104;-38
2022/01/16 13:02:16;;;;;;;3.80;2.42;;;;;;;;;;5071781;28;20456;-38
2022/01/16 13:04:43;;;;;;;7.60;2.30;;;;;;;;;;5071619;28;20427;-38
2022/01/16 13:07:09;;;;;;;4.40;1.92;;;;;;;;;;5071661;28;20032;-38
2022/01/16 13:09:36;;;;;;;3.88;2.03;;;;;;;;;;5071657;28;20028;-38
2022/01/16 13:12:02;;;;;;;3.78;1.73;;;;;;;;;;5071868;28;20016;-38
2022/01/16 13:14:28;;;;;;;1.95;1.77;;;;;;;;;;5071421;28;20086;-38
2022/01/16 13:16:55;;;;;;;3.63;2.47;;;;;;;;;;5071610;28;20036;-37
2022/01/16 13:19:24;;;;;;;4.97;2.60;;;;;;;;;;5071525;28;20033;-38
2022/01/16 13:21:59;;;;;;;3.95;2.25;;;;;;;;;;5071545;28;20148;-39
2022/01/16 13:24:49;;;;;;;5.38;2.33;;;;;;;;;;5071378;28;20067;-38
2022/01/16 13:27:18;;;;;;;3.25;2.05;;;;;;;;;;5071600;28;20028;-38
2022/01/16 13:29:48;;;;;;;4.05;1.77;;;;;;;;;;5071361;28;20021;-38
2022/01/16 13:32:15;;;;;;;4.75;2.58;;;;;;;;;;5071409;28;20074;-39
2022/01/16 13:34:41;;;;;;;7.30;2.72;;;;;;;;;;5069848;28;20051;-38
2022/01/16 13:37:08;;;;;;;3.40;2.22;;;;;;;;;;5070064;28;20495;-38
2022/01/16 13:39:37;;;;;;;6.03;2.15;;;;;;;;;;5071429;28;20074;-38
2022/01/16 13:42:19;;;;;;;4.43;1.45;;;;;;;;;;5071053;28;20101;-38
2022/01/16 13:44:45;;;;;;;2.22;1.50;;;;;;;;;;5070829;28;20056;-38
2022/01/16 13:47:19;;;;;;;3.30;2.13;;;;;;;;;;5071250;28;20054;-38
2022/01/16 13:49:46;;;;;;;4.40;2.95;;;;;;;;;;5071078;28;20052;-38
2022/01/16 13:52:12;;;;;;;2.92;1.92;;;;;;;;;;5071273;28;20092;-38
2022/01/16 13:54:38;;;;;;;5.95;2.45;;;;;;;;;;5070943;28;20029;-38
2022/01/16 13:57:04;;;;;;;3.33;2.10;;;;;;;;;;5071380;28;20439;-38
2022/01/16 13:59:33;;;;;;;5.00;2.33;;;;;;;;;;5070973;28;20505;-38
2022/01/16 14:02:01;;;;;;;6.43;2.53;;;;;;;;;;5071047;28;20531;-38
2022/01/16 14:04:27;;;;;;;2.63;1.65;;;;;;;;;;5069688;28;20052;-38
2022/01/16 14:06:56;;;;;;;4.82;2.28;;;;;;;;;;5071355;28;20416;-38
2022/01/16 14:09:22;;;;;;;5.90;2.20;;;;;;;;;;5071292;28;20052;-38
2022/01/16 14:11:49;;;;;;;9.73;2.70;;;;;;;;;;5070872;28;20020;-38
2022/01/16 14:14:16;;;;;;;7.47;1.92;;;;;;;;;;5070984;28;20121;-38
2022/01/16 14:17:16;;;;;;;5.03;2.88;;;;;;;;;;5071195;28;20051;-38
2022/01/16 14:22:17;;;;;;;2.78;2.42;;;;;;;;;;5071196;28;20029;-38
2022/01/16 14:24:46;;;;;;;6.13;2.15;;;;;;;;;;5069580;28;20032;-38
2022/01/16 14:27:26;;;;;;;4.55;2.40;;;;;;;;;;5070857;28;20496;-38
2022/01/16 14:29:53;;;;;;;2.45;1.90;;;;;;;;;;5071124;28;20434;-38
2022/01/16 14:32:20;;;;;;;2.70;2.10;;;;;;;;;;5071059;28;20111;-38
2022/01/16 14:34:46;;;;;;;9.02;2.25;;;;;;;;;;5070670;28;20036;-37
2022/01/16 14:37:13;;;;;;;6.63;2.08;;;;;;;;;;5070806;28;20028;-38
2022/01/16 14:39:39;;;;;;;5.28;2.97;;;;;;;;;;5070920;28;20036;-38
2022/01/16 14:42:06;;;;;;;6.35;2.80;;;;;;;;;;5070580;28;20040;-38
2022/01/16 14:44:33;;;;;;;7.13;3.90;;;;;;;;;;5070506;28;20028;-38
2022/01/16 14:47:00;;;;;;;3.70;2.13;;;;;;;;;;5070898;28;20078;-38
2022/01/16 14:49:27;;;;;;;4.45;2.70;;;;;;;;;;5070614;28;20774;-38
2022/01/16 14:51:53;;;;;;;3.22;2.10;;;;;;;;;;5070602;28;20021;-38
2022/01/16 14:54:19;;;;;;;6.10;2.75;;;;;;;;;;5070791;28;20382;-39
2022/01/16 14:56:45;;;;;;;3.95;2.15;;;;;;;;;;5071239;28;20038;-38
2022/01/16 14:59:11;;;;;;;6.25;3.20;;;;;;;;;;5074042;28;20025;-38
2022/01/16 15:01:37;;;;;;;3.60;2.05;;;;;;;;;;5072871;28;20016;-38
2022/01/16 15:04:04;;;;;;;6.85;2.65;;;;;;;;;;5074039;28;20036;-38
2022/01/16 15:06:30;;;;;;;3.03;2.35;;;;;;;;;;5073929;28;20070;-38
2022/01/16 15:08:57;;;;;;;4.78;3.05;;;;;;;;;;5073928;28;20048;-38
2022/01/16 15:11:23;;;;;;;6.10;2.70;;;;;;;;;;5072649;28;20503;-38
2022/01/16 15:13:52;;;;;;;4.38;2.53;;;;;;;;;;5073734;28;20040;-40
2022/01/16 15:16:24;;;;;;;6.88;2.83;;;;;;;;;;5073812;28;20115;-38
2022/01/16 15:18:54;;;;;;;5.33;3.80;;;;;;;;;;5073773;28;20048;-38
2022/01/16 15:21:26;;;;;;;3.55;2.58;;;;;;;;;;5073689;28;20012;-38
2022/01/16 15:23:52;;;;;;;5.28;2.78;;;;;;;;;;5074061;28;20449;-38
2022/01/16 15:26:17;;;;;;;4.90;2.83;;;;;;;;;;5072371;28;20112;-38
2022/01/16 15:28:43;;;;;;;6.20;2.45;;;;;;;;;;5073503;28;20501;-38
2022/01/16 15:31:09;;;;;;;9.55;3.00;;;;;;;;;;5073464;28;20035;-38
2022/01/16 15:33:35;;;;;;;6.05;3.42;;;;;;;;;;5073414;28;20083;-38